sensor_id;sensor_type;location;lat;lon;timestamp;pressure;altitude;pressure_sealevel;temperature;humidity
71764;BME280;59602;52.142;5.408;2023-02-28T00:01:21;103323.63;;;2.01;82.09
71764;BME280;59602;52.142;5.408;2023-02-28T00:03:48;103317.19;;;2.02;82.59
71764;BME280;59602;52.142;5.408;2023-02-28T00:06:15;103319.63;;;2.03;82.66
71764;BME280;59602;52.142;5.408;2023-02-28T00:08:42;103323.38;;;2.02;82.68
71764;BME280;59602;52.142;5.408;2023-02-28T00:11:11;103329.84;;;2.06;83.01
71764;BME280;59602;52.142;5.408;2023-02-28T00:13:41;103337.34;;;2.10;82.83
71764;BME280;59602;52.142;5.408;2023-02-28T00:16:11;103339.78;;;2.11;82.84
71764;BME280;59602;52.142;5.408;2023-02-28T00:18:39;103332.84;;;2.15;82.77
71764;BME280;59602;52.142;5.408;2023-02-28T00:21:06;103335.53;;;2.20;82.61
71764;BME280;59602;52.142;5.408;2023-02-28T00:23:34;103334.75;;;2.25;82.91
71764;BME280;59602;52.142;5.408;2023-02-28T00:26:01;103332.38;;;2.28;82.78
71764;BME280;59602;52.142;5.408;2023-02-28T00:28:27;103334.28;;;2.33;82.93
71764;BME280;59602;52.142;5.408;2023-02-28T00:30:54;103341.53;;;2.38;83.22
71764;BME280;59602;52.142;5.408;2023-02-28T00:33:21;103335.38;;;2.42;83.06
71764;BME280;59602;52.142;5.408;2023-02-28T00:35:49;103327.88;;;2.44;82.69
71764;BME280;59602;52.142;5.408;2023-02-28T00:38:16;103333.81;;;2.46;82.80
71764;BME280;59602;52.142;5.408;2023-02-28T00:40:43;103325.50;;;2.48;82.23
71764;BME280;59602;52.142;5.408;2023-02-28T00:43:09;103330.31;;;2.51;82.63
71764;BME280;59602;52.142;5.408;2023-02-28T00:45:36;103323.06;;;2.52;82.50
71764;BME280;59602;52.142;5.408;2023-02-28T00:48:03;103341.38;;;2.55;82.58
71764;BME280;59602;52.142;5.408;2023-02-28T00:50:30;103331.41;;;2.55;82.22
71764;BME280;59602;52.142;5.408;2023-02-28T00:52:57;103324.97;;;2.56;82.50
71764;BME280;59602;52.142;5.408;2023-02-28T00:55:23;103324.47;;;2.59;82.01
71764;BME280;59602;52.142;5.408;2023-02-28T00:57:50;103317.47;;;2.63;82.22
71764;BME280;59602;52.142;5.408;2023-02-28T01:00:17;103313.47;;;2.66;82.40
71764;BME280;59602;52.142;5.408;2023-02-28T01:02:43;103327.69;;;2.66;82.48
71764;BME280;59602;52.142;5.408;2023-02-28T01:05:10;103324.75;;;2.68;81.91
71764;BME280;59602;52.142;5.408;2023-02-28T01:07:37;103322.88;;;2.68;82.14
71764;BME280;59602;52.142;5.408;2023-02-28T01:10:04;103320.72;;;2.70;82.35
71764;BME280;59602;52.142;5.408;2023-02-28T01:12:31;103325.03;;;2.72;82.39
71764;BME280;59602;52.142;5.408;2023-02-28T01:14:58;103330.13;;;2.73;82.20
71764;BME280;59602;52.142;5.408;2023-02-28T01:17:24;103320.75;;;2.76;82.21
71764;BME280;59602;52.142;5.408;2023-02-28T01:19:54;103324.22;;;2.76;82.15
71764;BME280;59602;52.142;5.408;2023-02-28T01:22:21;103320.50;;;2.77;82.45
71764;BME280;59602;52.142;5.408;2023-02-28T01:24:48;103326.66;;;2.78;82.38
71764;BME280;59602;52.142;5.408;2023-02-28T01:27:15;103322.88;;;2.79;82.35
71764;BME280;59602;52.142;5.408;2023-02-28T01:29:41;103313.78;;;2.80;82.17
71764;BME280;59602;52.142;5.408;2023-02-28T01:32:08;103316.47;;;2.80;82.14
71764;BME280;59602;52.142;5.408;2023-02-28T01:34:35;103315.38;;;2.81;82.07
71764;BME280;59602;52.142;5.408;2023-02-28T01:37:01;103318.84;;;2.81;82.48
71764;BME280;59602;52.142;5.408;2023-02-28T01:39:29;103312.19;;;2.84;82.52
71764;BME280;59602;52.142;5.408;2023-02-28T01:41:56;103320.25;;;2.84;82.53
71764;BME280;59602;52.142;5.408;2023-02-28T01:47:27;103315.66;;;2.84;82.43
71764;BME280;59602;52.142;5.408;2023-02-28T01:49:55;103311.09;;;2.85;82.12
71764;BME280;59602;52.142;5.408;2023-02-28T01:52:23;103314.31;;;2.87;82.26
71764;BME280;59602;52.142;5.408;2023-02-28T01:54:54;103304.66;;;2.86;82.54
71764;BME280;59602;52.142;5.408;2023-02-28T01:57:29;103301.69;;;2.87;82.15
71764;BME280;59602;52.142;5.408;2023-02-28T02:00:01;103308.94;;;2.87;82.27
71764;BME280;59602;52.142;5.408;2023-02-28T02:02:31;103292.81;;;2.87;81.94
71764;BME280;59602;52.142;5.408;2023-02-28T02:05:06;103295.50;;;2.87;82.08
71764;BME280;59602;52.142;5.408;2023-02-28T02:07:36;103290.94;;;2.87;81.91
71764;BME280;59602;52.142;5.408;2023-02-28T02:10:15;103291.75;;;2.88;82.06
71764;BME280;59602;52.142;5.408;2023-02-28T02:18:33;103285.06;;;2.90;81.36
71764;BME280;59602;52.142;5.408;2023-02-28T02:24:07;103290.97;;;2.93;81.72
71764;BME280;59602;52.142;5.408;2023-02-28T02:27:03;103286.41;;;2.93;81.58
71764;BME280;59602;52.142;5.408;2023-02-28T02:35:11;103300.09;;;2.97;82.17
71764;BME280;59602;52.142;5.408;2023-02-28T02:37:47;103288.03;;;2.99;81.83
71764;BME280;59602;52.142;5.408;2023-02-28T02:40:25;103294.75;;;3.02;81.82
71764;BME280;59602;52.142;5.408;2023-02-28T02:43:00;103291.78;;;3.03;82.08
71764;BME280;59602;52.142;5.408;2023-02-28T02:45:34;103285.34;;;3.04;82.32
71764;BME280;59602;52.142;5.408;2023-02-28T02:48:07;103291.78;;;3.03;82.08
71764;BME280;59602;52.142;5.408;2023-02-28T02:50:39;103293.41;;;3.04;82.10
71764;BME280;59602;52.142;5.408;2023-02-28T02:53:09;103288.03;;;3.04;82.53
71764;BME280;59602;52.142;5.408;2023-02-28T02:55:41;103290.72;;;3.04;82.32
71764;BME280;59602;52.142;5.408;2023-02-28T02:58:14;103290.16;;;3.07;82.77
71764;BME280;59602;52.142;5.408;2023-02-28T03:00:46;103292.84;;;3.07;82.64
71764;BME280;59602;52.142;5.408;2023-02-28T03:03:16;103283.72;;;3.08;82.61
71764;BME280;59602;52.142;5.408;2023-02-28T03:05:48;103283.72;;;3.08;82.26
71764;BME280;59602;52.142;5.408;2023-02-28T03:08:15;103294.19;;;3.10;83.06
71764;BME280;59602;52.142;5.408;2023-02-28T03:10:45;103292.59;;;3.09;82.77
71764;BME280;59602;52.142;5.408;2023-02-28T03:13:37;103297.72;;;3.10;83.13
71764;BME280;59602;52.142;5.408;2023-02-28T03:19:01;103291.25;;;3.11;82.87
71764;BME280;59602;52.142;5.408;2023-02-28T03:26:34;103295.81;;;3.11;83.60
71764;BME280;59602;52.142;5.408;2023-02-28T03:29:13;103296.88;;;3.10;83.66
71764;BME280;59602;52.142;5.408;2023-02-28T03:31:48;103298.22;;;3.12;83.46
71764;BME280;59602;52.142;5.408;2023-02-28T03:34:24;103297.44;;;3.12;84.05
71764;BME280;59602;52.142;5.408;2023-02-28T03:36:55;103292.84;;;3.12;83.72
71764;BME280;59602;52.142;5.408;2023-02-28T03:39:28;103301.75;;;3.13;83.75
71764;BME280;59602;52.142;5.408;2023-02-28T03:42:00;103294.47;;;3.14;84.04
71764;BME280;59602;52.142;5.408;2023-02-28T03:44:34;103296.09;;;3.15;84.08
71764;BME280;59602;52.142;5.408;2023-02-28T03:49:40;103304.44;;;3.13;84.13
71764;BME280;59602;52.142;5.408;2023-02-28T03:52:09;103311.16;;;3.16;84.03
71764;BME280;59602;52.142;5.408;2023-02-28T03:54:42;103313.03;;;3.15;83.91
71764;BME280;59602;52.142;5.408;2023-02-28T03:57:22;103314.63;;;3.16;83.89
71764;BME280;59602;52.142;5.408;2023-02-28T03:59:56;103320.81;;;3.17;83.34
71764;BME280;59602;52.142;5.408;2023-02-28T04:02:25;103314.09;;;3.19;83.03
71764;BME280;59602;52.142;5.408;2023-02-28T04:04:52;103304.69;;;3.17;83.00
71764;BME280;59602;52.142;5.408;2023-02-28T04:07:18;103306.31;;;3.18;82.92
71764;BME280;59602;52.142;5.408;2023-02-28T04:09:45;103302.84;;;3.17;82.39
71764;BME280;59602;52.142;5.408;2023-02-28T04:12:12;103309.25;;;3.16;82.10
71764;BME280;59602;52.142;5.408;2023-02-28T04:14:38;103313.03;;;3.15;81.78
71764;BME280;59602;52.142;5.408;2023-02-28T04:17:05;103308.72;;;3.14;81.82
71764;BME280;59602;52.142;5.408;2023-02-28T04:19:31;103312.22;;;3.15;81.50
71764;BME280;59602;52.142;5.408;2023-02-28T04:21:58;103307.66;;;3.15;81.32
71764;BME280;59602;52.142;5.408;2023-02-28T04:24:27;103308.19;;;3.12;80.80
71764;BME280;59602;52.142;5.408;2023-02-28T04:26:56;103314.91;;;3.09;79.64
71764;BME280;59602;52.142;5.408;2023-02-28T04:29:28;103315.69;;;3.10;79.24
71764;BME280;59602;52.142;5.408;2023-02-28T04:31:56;103318.69;;;3.08;78.37
71764;BME280;59602;52.142;5.408;2023-02-28T04:34:25;103324.06;;;3.08;77.72
71764;BME280;59602;52.142;5.408;2023-02-28T04:36:52;103328.09;;;3.06;76.39
71764;BME280;59602;52.142;5.408;2023-02-28T04:39:37;103335.84;;;3.02;74.73
71764;BME280;59602;52.142;5.408;2023-02-28T04:42:04;103325.38;;;3.01;74.28
71764;BME280;59602;52.142;5.408;2023-02-28T04:44:31;103325.91;;;2.98;74.28
71764;BME280;59602;52.142;5.408;2023-02-28T04:46:58;103334.22;;;2.96;74.16
71764;BME280;59602;52.142;5.408;2023-02-28T04:49:25;103326.41;;;2.95;74.21
71764;BME280;59602;52.142;5.408;2023-02-28T04:51:51;103324.56;;;2.95;73.73
71764;BME280;59602;52.142;5.408;2023-02-28T04:54:19;103316.75;;;2.94;74.05
71764;BME280;59602;52.142;5.408;2023-02-28T04:56:45;103325.06;;;2.92;73.75
71764;BME280;59602;52.142;5.408;2023-02-28T04:59:12;103329.09;;;2.89;73.89
71764;BME280;59602;52.142;5.408;2023-02-28T05:01:39;103325.63;;;2.89;74.58
71764;BME280;59602;52.142;5.408;2023-02-28T05:04:05;103329.09;;;2.89;74.62
71764;BME280;59602;52.142;5.408;2023-02-28T05:06:32;103325.88;;;2.87;74.38
71764;BME280;59602;52.142;5.408;2023-02-28T05:08:59;103317.81;;;2.87;75.00
71764;BME280;59602;52.142;5.408;2023-02-28T05:13:53;103318.59;;;2.83;75.21
71764;BME280;59602;52.142;5.408;2023-02-28T05:16:20;103315.13;;;2.82;75.98
71764;BME280;59602;52.142;5.408;2023-02-28T05:18:47;103325.56;;;2.79;77.19
71764;BME280;59602;52.142;5.408;2023-02-28T05:21:23;103327.16;;;2.69;77.30
71764;BME280;59602;52.142;5.408;2023-02-28T05:23:51;103330.94;;;2.68;77.90
71764;BME280;59602;52.142;5.408;2023-02-28T05:26:18;103338.44;;;2.66;78.20
71764;BME280;59602;52.142;5.408;2023-02-28T05:28:46;103331.72;;;2.64;78.93
71764;BME280;59602;52.142;5.408;2023-02-28T05:31:13;103331.97;;;2.62;79.89
71764;BME280;59602;52.142;5.408;2023-02-28T05:33:40;103341.63;;;2.58;79.81
71764;BME280;59602;52.142;5.408;2023-02-28T05:36:07;103333.31;;;2.55;80.19
71764;BME280;59602;52.142;5.408;2023-02-28T05:38:34;103333.81;;;2.52;80.38
71764;BME280;59602;52.142;5.408;2023-02-28T05:41:10;103335.69;;;2.51;80.42
71764;BME280;59602;52.142;5.408;2023-02-28T05:43:37;103328.19;;;2.48;80.17
71764;BME280;59602;52.142;5.408;2023-02-28T05:46:06;103326.00;;;2.45;80.82
71764;BME280;59602;52.142;5.408;2023-02-28T05:48:34;103338.06;;;2.42;81.36
71764;BME280;59602;52.142;5.408;2023-02-28T05:51:04;103336.16;;;2.38;81.19
71764;BME280;59602;52.142;5.408;2023-02-28T05:53:32;103337.50;;;2.35;81.92
71764;BME280;59602;52.142;5.408;2023-02-28T05:55:59;103338.28;;;2.31;81.84
71764;BME280;59602;52.142;5.408;2023-02-28T05:58:26;103342.31;;;2.28;82.06
71764;BME280;59602;52.142;5.408;2023-02-28T06:00:58;103341.75;;;2.26;82.11
71764;BME280;59602;52.142;5.408;2023-02-28T06:03:24;103339.56;;;2.23;82.29
71764;BME280;59602;52.142;5.408;2023-02-28T06:05:51;103331.25;;;2.19;82.51
71764;BME280;59602;52.142;5.408;2023-02-28T06:08:18;103335.78;;;2.19;82.93
71764;BME280;59602;52.142;5.408;2023-02-28T06:10:44;103331.50;;;2.18;83.39
71764;BME280;59602;52.142;5.408;2023-02-28T06:13:11;103335.28;;;2.17;83.27
71764;BME280;59602;52.142;5.408;2023-02-28T06:15:39;103330.69;;;2.17;83.53
71764;BME280;59602;52.142;5.408;2023-02-28T06:18:05;103336.63;;;2.19;84.05
71764;BME280;59602;52.142;5.408;2023-02-28T06:20:32;103335.00;;;2.18;83.97
71764;BME280;59602;52.142;5.408;2023-02-28T06:22:59;103326.66;;;2.15;83.62
71764;BME280;59602;52.142;5.408;2023-02-28T06:25:27;103319.41;;;2.15;83.89
71764;BME280;59602;52.142;5.408;2023-02-28T06:27:54;103322.09;;;2.15;84.12
71764;BME280;59602;52.142;5.408;2023-02-28T06:30:22;103316.97;;;2.14;84.64
71764;BME280;59602;52.142;5.408;2023-02-28T06:32:51;103330.41;;;2.14;84.73
71764;BME280;59602;52.142;5.408;2023-02-28T06:35:18;103334.97;;;2.13;84.40
71764;BME280;59602;52.142;5.408;2023-02-28T06:37:45;103334.41;;;2.11;84.18
71764;BME280;59602;52.142;5.408;2023-02-28T06:40:13;103335.19;;;2.06;84.28
71764;BME280;59602;52.142;5.408;2023-02-28T06:42:40;103331.44;;;2.07;85.41
71764;BME280;59602;52.142;5.408;2023-02-28T06:45:07;103329.84;;;2.12;85.04
71764;BME280;59602;52.142;5.408;2023-02-28T06:47:38;103328.00;;;2.12;85.26
71764;BME280;59602;52.142;5.408;2023-02-28T06:50:06;103324.00;;;2.15;85.15
71764;BME280;59602;52.142;5.408;2023-02-28T06:52:33;103318.09;;;2.18;85.14
71764;BME280;59602;52.142;5.408;2023-02-28T06:55:05;103325.84;;;2.14;85.35
71764;BME280;59602;52.142;5.408;2023-02-28T06:57:33;103330.94;;;2.16;85.93
71764;BME280;59602;52.142;5.408;2023-02-28T07:00:05;103331.47;;;2.13;85.89
71764;BME280;59602;52.142;5.408;2023-02-28T07:02:35;103341.94;;;2.14;85.84
71764;BME280;59602;52.142;5.408;2023-02-28T07:05:03;103346.81;;;2.17;86.53
71764;BME280;59602;52.142;5.408;2023-02-28T07:07:30;103347.91;;;2.21;86.10
71764;BME280;59602;52.142;5.408;2023-02-28T07:09:57;103347.38;;;2.24;86.42
71764;BME280;59602;52.142;5.408;2023-02-28T07:12:24;103343.88;;;2.24;86.45
71764;BME280;59602;52.142;5.408;2023-02-28T07:14:50;103345.00;;;2.28;86.45
71764;BME280;59602;52.142;5.408;2023-02-28T07:17:19;103344.47;;;2.31;86.20
71764;BME280;59602;52.142;5.408;2023-02-28T07:19:46;103340.69;;;2.32;86.80
71764;BME280;59602;52.142;5.408;2023-02-28T07:22:12;103348.78;;;2.37;86.90
71764;BME280;59602;52.142;5.408;2023-02-28T07:24:41;103349.59;;;2.38;86.95
71764;BME280;59602;52.142;5.408;2023-02-28T07:27:08;103348.50;;;2.39;86.66
71764;BME280;59602;52.142;5.408;2023-02-28T07:29:35;103354.44;;;2.41;87.04
71764;BME280;59602;52.142;5.408;2023-02-28T07:32:01;103353.38;;;2.42;86.74
71764;BME280;59602;52.142;5.408;2023-02-28T07:34:28;103352.59;;;2.46;86.64
71764;BME280;59602;52.142;5.408;2023-02-28T07:36:55;103341.59;;;2.48;87.16
71764;BME280;59602;52.142;5.408;2023-02-28T07:39:22;103352.84;;;2.50;86.88
71764;BME280;59602;52.142;5.408;2023-02-28T07:41:56;103349.66;;;2.53;87.25
71764;BME280;59602;52.142;5.408;2023-02-28T07:44:23;103359.88;;;2.56;87.47
71764;BME280;59602;52.142;5.408;2023-02-28T07:46:49;103360.97;;;2.60;87.38
71764;BME280;59602;52.142;5.408;2023-02-28T07:49:16;103371.19;;;2.63;87.44
71764;BME280;59602;52.142;5.408;2023-02-28T07:51:43;103365.31;;;2.66;86.66
71764;BME280;59602;52.142;5.408;2023-02-28T07:54:09;103367.44;;;2.69;87.00
71764;BME280;59602;52.142;5.408;2023-02-28T07:56:36;103365.31;;;2.72;87.00
71764;BME280;59602;52.142;5.408;2023-02-28T07:59:02;103363.19;;;2.74;86.77
71764;BME280;59602;52.142;5.408;2023-02-28T08:01:29;103358.59;;;2.74;86.75
71764;BME280;59602;52.142;5.408;2023-02-28T08:03:56;103362.38;;;2.78;86.43
71764;BME280;59602;52.142;5.408;2023-02-28T08:06:24;103373.94;;;2.79;86.78
71764;BME280;59602;52.142;5.408;2023-02-28T08:08:53;103382.28;;;2.82;86.84
71764;BME280;59602;52.142;5.408;2023-02-28T08:11:22;103384.44;;;2.85;86.38
71764;BME280;59602;52.142;5.408;2023-02-28T08:13:49;103379.34;;;2.89;86.47
71764;BME280;59602;52.142;5.408;2023-02-28T08:16:15;103380.16;;;2.95;86.85
71764;BME280;59602;52.142;5.408;2023-02-28T08:18:50;103390.41;;;2.98;86.07
71764;BME280;59602;52.142;5.408;2023-02-28T08:21:17;103390.66;;;2.96;86.03
71764;BME280;59602;52.142;5.408;2023-02-28T08:23:49;103394.16;;;2.97;86.04
71764;BME280;59602;52.142;5.408;2023-02-28T08:26:17;103394.69;;;2.99;85.57
71764;BME280;59602;52.142;5.408;2023-02-28T08:28:44;103377.22;;;3.01;85.90
71764;BME280;59602;52.142;5.408;2023-02-28T08:31:13;103395.28;;;3.06;85.25
71764;BME280;59602;52.142;5.408;2023-02-28T08:33:41;103381.03;;;3.10;84.77
71764;BME280;59602;52.142;5.408;2023-02-28T08:36:09;103379.94;;;3.17;84.28
71764;BME280;59602;52.142;5.408;2023-02-28T08:38:36;103376.75;;;3.20;83.92
71764;BME280;59602;52.142;5.408;2023-02-28T08:41:05;103381.84;;;3.21;83.83
71764;BME280;59602;52.142;5.408;2023-02-28T08:43:33;103383.72;;;3.21;83.68
71764;BME280;59602;52.142;5.408;2023-02-28T08:46:00;103374.59;;;3.22;83.54
71764;BME280;59602;52.142;5.408;2023-02-28T08:48:29;103373.25;;;3.24;82.79
71764;BME280;59602;52.142;5.408;2023-02-28T08:50:59;103368.97;;;3.28;82.21
71764;BME280;59602;52.142;5.408;2023-02-28T08:53:33;103369.78;;;3.34;81.61
71764;BME280;59602;52.142;5.408;2023-02-28T08:56:03;103372.75;;;3.38;80.48
71764;BME280;59602;52.142;5.408;2023-02-28T08:58:30;103374.88;;;3.41;80.74
71764;BME280;59602;52.142;5.408;2023-02-28T09:00:57;103378.13;;;3.43;80.09
71764;BME280;59602;52.142;5.408;2023-02-28T09:03:24;103379.47;;;3.45;79.24
71764;BME280;59602;52.142;5.408;2023-02-28T09:05:57;103373.28;;;3.45;77.25
71764;BME280;59602;52.142;5.408;2023-02-28T09:08:26;103381.63;;;3.48;76.31
71764;BME280;59602;52.142;5.408;2023-02-28T09:10:52;103385.13;;;3.54;76.90
71764;BME280;59602;52.142;5.408;2023-02-28T09:13:20;103366.56;;;3.63;76.45
71764;BME280;59602;52.142;5.408;2023-02-28T09:15:47;103384.59;;;3.72;74.82
71764;BME280;59602;52.142;5.408;2023-02-28T09:18:14;103371.69;;;3.80;73.68
71764;BME280;59602;52.142;5.408;2023-02-28T09:20:41;103381.09;;;3.98;74.70
71764;BME280;59602;52.142;5.408;2023-02-28T09:23:10;103383.22;;;4.11;71.14
71764;BME280;59602;52.142;5.408;2023-02-28T09:25:47;103372.44;;;4.16;70.97
71764;BME280;59602;52.142;5.408;2023-02-28T09:28:15;103369.19;;;4.24;69.53
71764;BME280;59602;52.142;5.408;2023-02-28T09:30:46;103374.28;;;4.36;68.91
71764;BME280;59602;52.142;5.408;2023-02-28T09:33:26;103372.38;;;4.47;70.50
71764;BME280;59602;52.142;5.408;2023-02-28T09:36:01;103377.19;;;4.50;68.28
71764;BME280;59602;52.142;5.408;2023-02-28T09:38:29;103377.47;;;4.48;65.21
71764;BME280;59602;52.142;5.408;2023-02-28T09:41:00;103381.78;;;4.49;65.34
71764;BME280;59602;52.142;5.408;2023-02-28T09:43:33;103378.25;;;4.54;63.45
71764;BME280;59602;52.142;5.408;2023-02-28T09:46:33;103383.34;;;4.61;63.11
71764;BME280;59602;52.142;5.408;2023-02-28T09:49:05;103383.88;;;4.57;61.47
71764;BME280;59602;52.142;5.408;2023-02-28T09:51:40;103383.91;;;4.52;60.92
71764;BME280;59602;52.142;5.408;2023-02-28T09:54:15;103393.34;;;4.50;61.10
71764;BME280;59602;52.142;5.408;2023-02-28T09:56:53;103396.84;;;4.50;60.32
71764;BME280;59602;52.142;5.408;2023-02-28T10:05:14;103382.78;;;4.64;58.32
71764;BME280;59602;52.142;5.408;2023-02-28T10:07:47;103379.28;;;4.73;58.42
71764;BME280;59602;52.142;5.408;2023-02-28T10:12:57;103380.84;;;4.85;58.33
71764;BME280;59602;52.142;5.408;2023-02-28T10:15:29;103380.78;;;4.95;58.21
71764;BME280;59602;52.142;5.408;2023-02-28T10:18:00;103373.47;;;5.01;56.68
71764;BME280;59602;52.142;5.408;2023-02-28T10:20:37;103368.53;;;5.13;55.82
71764;BME280;59602;52.142;5.408;2023-02-28T10:23:28;103371.19;;;5.23;55.85
71764;BME280;59602;52.142;5.408;2023-02-28T10:26:00;103366.59;;;5.24;53.99
71764;BME280;59602;52.142;5.408;2023-02-28T10:28:29;103363.03;;;5.28;54.21
71764;BME280;59602;52.142;5.408;2023-02-28T10:30:58;103363.84;;;5.29;55.61
71764;BME280;59602;52.142;5.408;2023-02-28T10:33:30;103371.41;;;5.32;52.56
71764;BME280;59602;52.142;5.408;2023-02-28T10:36:21;103368.06;;;5.45;53.16
71764;BME280;59602;52.142;5.408;2023-02-28T10:38:48;103362.03;;;5.53;52.40
71764;BME280;59602;52.142;5.408;2023-02-28T10:41:26;103363.63;;;5.59;51.19
71764;BME280;59602;52.142;5.408;2023-02-28T10:44:13;103373.03;;;5.67;54.59
71764;BME280;59602;52.142;5.408;2023-02-28T10:46:41;103375.38;;;5.74;53.26
71764;BME280;59602;52.142;5.408;2023-02-28T10:49:14;103372.38;;;5.80;53.70
71764;BME280;59602;52.142;5.408;2023-02-28T10:51:43;103361.78;;;5.84;51.54
71764;BME280;59602;52.142;5.408;2023-02-28T10:54:17;103367.97;;;5.90;55.46
71764;BME280;59602;52.142;5.408;2023-02-28T10:56:44;103360.88;;;5.94;52.38
71764;BME280;59602;52.142;5.408;2023-02-28T11:01:43;103356.84;;;5.91;52.86
71764;BME280;59602;52.142;5.408;2023-02-28T11:06:58;103355.75;;;5.97;51.80
71764;BME280;59602;52.142;5.408;2023-02-28T11:09:31;103356.50;;;6.03;50.63
71764;BME280;59602;52.142;5.408;2023-02-28T11:12:00;103355.16;;;6.00;51.06
71764;BME280;59602;52.142;5.408;2023-02-28T11:14:28;103346.28;;;6.00;50.30
71764;BME280;59602;52.142;5.408;2023-02-28T11:17:02;103344.94;;;5.97;52.39
71764;BME280;59602;52.142;5.408;2023-02-28T11:19:40;103345.75;;;5.98;50.63
71764;BME280;59602;52.142;5.408;2023-02-28T11:22:17;103341.16;;;5.98;50.87
71764;BME280;59602;52.142;5.408;2023-02-28T11:24:50;103338.97;;;6.00;50.06
71764;BME280;59602;52.142;5.408;2023-02-28T11:30:04;103338.94;;;6.06;50.00
71764;BME280;59602;52.142;5.408;2023-02-28T11:32:49;103339.47;;;6.02;49.20
71764;BME280;59602;52.142;5.408;2023-02-28T11:35:23;103330.06;;;6.00;50.05
71764;BME280;59602;52.142;5.408;2023-02-28T11:37:51;103333.28;;;6.02;50.60
71764;BME280;59602;52.142;5.408;2023-02-28T11:40:23;103335.44;;;6.05;49.83
71764;BME280;59602;52.142;5.408;2023-02-28T11:43:44;103337.03;;;6.06;50.36
71764;BME280;59602;52.142;5.408;2023-02-28T11:49:13;103318.38;;;6.10;49.78
71764;BME280;59602;52.142;5.408;2023-02-28T11:51:53;103318.88;;;6.12;48.65
71764;BME280;59602;52.142;5.408;2023-02-28T11:54:28;103310.47;;;6.13;48.51
71764;BME280;59602;52.142;5.408;2023-02-28T11:57:09;103318.06;;;6.11;48.18
71764;BME280;59602;52.142;5.408;2023-02-28T12:03:07;103311.13;;;6.05;49.20
71764;BME280;59602;52.142;5.408;2023-02-28T12:05:43;103301.91;;;6.06;49.05
71764;BME280;59602;52.142;5.408;2023-02-28T12:08:40;103302.69;;;6.12;47.66
71764;BME280;59602;52.142;5.408;2023-02-28T12:11:22;103301.28;;;6.14;48.42
71764;BME280;59602;52.142;5.408;2023-02-28T12:16:37;103300.19;;;6.15;47.78
71764;BME280;59602;52.142;5.408;2023-02-28T12:19:13;103301.81;;;6.16;52.20
71764;BME280;59602;52.142;5.408;2023-02-28T12:24:55;103298.25;;;6.21;49.86
71764;BME280;59602;52.142;5.408;2023-02-28T12:27:29;103291.75;;;6.22;49.96
71764;BME280;59602;52.142;5.408;2023-02-28T12:30:02;103288.25;;;6.21;49.61
71764;BME280;59602;52.142;5.408;2023-02-28T12:32:34;103283.63;;;6.22;49.02
71764;BME280;59602;52.142;5.408;2023-02-28T12:35:12;103280.66;;;6.23;48.04
71764;BME280;59602;52.142;5.408;2023-02-28T12:37:57;103284.94;;;6.24;48.02
71764;BME280;59602;52.142;5.408;2023-02-28T12:40:32;103282.84;;;6.21;48.33
71764;BME280;59602;52.142;5.408;2023-02-28T12:43:04;103287.72;;;6.19;47.22
71764;BME280;59602;52.142;5.408;2023-02-28T12:45:50;103286.94;;;6.19;48.02
71764;BME280;59602;52.142;5.408;2023-02-28T12:48:24;103285.31;;;6.18;50.16
71764;BME280;59602;52.142;5.408;2023-02-28T12:50:52;103283.91;;;6.20;48.74
71764;BME280;59602;52.142;5.408;2023-02-28T12:53:43;103276.56;;;6.26;48.74
71764;BME280;59602;52.142;5.408;2023-02-28T12:56:23;103275.47;;;6.27;48.59
71764;BME280;59602;52.142;5.408;2023-02-28T12:58:57;103267.94;;;6.24;47.93
71764;BME280;59602;52.142;5.408;2023-02-28T13:01:39;103270.94;;;6.22;47.12
71764;BME280;59602;52.142;5.408;2023-02-28T13:04:24;103271.97;;;6.27;47.39
71764;BME280;59602;52.142;5.408;2023-02-28T13:07:10;103264.09;;;6.30;47.92
71764;BME280;59602;52.142;5.408;2023-02-28T13:09:40;103268.38;;;6.31;47.25
71764;BME280;59602;52.142;5.408;2023-02-28T13:12:16;103264.88;;;6.31;48.67
71764;BME280;59602;52.142;5.408;2023-02-28T13:14:43;103259.75;;;6.29;47.31
71764;BME280;59602;52.142;5.408;2023-02-28T13:17:11;103255.69;;;6.32;47.06
71764;BME280;59602;52.142;5.408;2023-02-28T13:19:55;103261.38;;;6.30;46.72
71764;BME280;59602;52.142;5.408;2023-02-28T13:24:54;103251.31;;;6.36;47.30
71764;BME280;59602;52.142;5.408;2023-02-28T13:27:33;103259.41;;;6.36;48.67
71764;BME280;59602;52.142;5.408;2023-02-28T13:30:02;103254.00;;;6.36;48.75
71764;BME280;59602;52.142;5.408;2023-02-28T13:35:46;103243.44;;;6.39;49.86
71764;BME280;59602;52.142;5.408;2023-02-28T13:38:24;103242.78;;;6.48;50.90
71764;BME280;59602;52.142;5.408;2023-02-28T13:44:20;103237.06;;;6.49;49.06
71764;BME280;59602;52.142;5.408;2023-02-28T13:49:29;103246.84;;;6.45;47.65
71764;BME280;59602;52.142;5.408;2023-02-28T13:54:58;103236.34;;;6.43;47.47
71764;BME280;59602;52.142;5.408;2023-02-28T13:57:33;103228.44;;;6.47;46.69
71764;BME280;59602;52.142;5.408;2023-02-28T14:05:29;103224.16;;;6.46;46.63
71764;BME280;59602;52.142;5.408;2023-02-28T14:08:04;103219.25;;;6.48;49.02
71764;BME280;59602;52.142;5.408;2023-02-28T14:10:39;103219.53;;;6.47;46.68
71764;BME280;59602;52.142;5.408;2023-02-28T14:13:37;103218.47;;;6.48;48.63
71764;BME280;59602;52.142;5.408;2023-02-28T14:16:13;103207.66;;;6.48;46.72
71764;BME280;59602;52.142;5.408;2023-02-28T14:18:42;103209.16;;;6.54;46.77
71764;BME280;59602;52.142;5.408;2023-02-28T14:21:26;103217.28;;;6.54;46.38
71764;BME280;59602;52.142;5.408;2023-02-28T14:24:24;103211.59;;;6.55;46.67
71764;BME280;59602;52.142;5.408;2023-02-28T14:26:58;103207.28;;;6.54;47.01
71764;BME280;59602;52.142;5.408;2023-02-28T14:29:35;103201.38;;;6.52;48.18
71764;BME280;59602;52.142;5.408;2023-02-28T14:32:28;103205.94;;;6.52;48.10
71764;BME280;59602;52.142;5.408;2023-02-28T14:37:42;103207.56;;;6.53;46.08
71764;BME280;59602;52.142;5.408;2023-02-28T14:40:19;103195.66;;;6.54;46.64
71764;BME280;59602;52.142;5.408;2023-02-28T14:42:55;103204.38;;;6.51;46.80